To NAV CANADA Home Page Login to a new session Search on AWWS site Disclaimer Vers la page française équivalente Tips FAQ What's new on the site To the Forecasts and Observations / NOTAM section To "File a Flight Plan" website Publications and other links Update of the User's profile FIC Telephone Numbers My Weather Data Folder Route Weather Data Regional Weather Data Local Weather Data To the Forecasts and Observations / NOTAM section
Request Generated 11/13/2018 at 18:04:37 UTC . Weather information available at that time is displayed.

METAR/TAF

PUVIRNITUQ/QC    (show WxCam)

METAR CYPX 131800Z AUTO 09013KT 9SM -SN CLR M11/M12 A2988 RMK SLP124=
METAR CYPX 131700Z AUTO 09011KT 9SM -SN FEW021 SCT240 M12/M13 A2990 RMK SLP129=
SPECI CYPX 131626Z AUTO 09012KT 9SM -SN SCT017 BKN240 M12/M13 A2991 RMK SLP132=
SPECI CYPX 131625Z AUTO 09012KT 9SM SCT017 SCT230 BKN250 M12/M13 A2991 RMK SLP132=
SPECI CYPX 131612Z AUTO 09013KT 9SM -SN SCT017 BKN240 M12/M13 A2991 RMK SLP133=
SPECI CYPX 131608Z AUTO 09012KT 9SM -SN BKN017 BKN240 M12/M13 A2991 RMK SLP134=
METAR CYPX 131600Z AUTO 09009KT 9SM -SN SCT019 SCT240 M12/M13 A2992 RMK SLP135=

TAF CYPX 131738Z 1318/1406 10010KT P6SM SCT020 OVC080 TEMPO 1318/1406
3SM -SN BKN020 OVC050
RMK FCST BASED ON AUTO OBS. NXT FCST BY 140000Z=
Your time UTC time
Weather data provided by Environment Canada and NAV CANADA